sensor_id;sensor_type;location;lat;lon;timestamp;temperature;humidity
296;DHT22;132;48.770;9.200;2023-04-15T00:02:16;7.00;1.00
296;DHT22;132;48.770;9.200;2023-04-15T00:04:47;6.10;1.00
296;DHT22;132;48.770;9.200;2023-04-15T00:07:14;7.20;1.00
296;DHT22;132;48.770;9.200;2023-04-15T00:09:41;7.10;1.00
296;DHT22;132;48.770;9.200;2023-04-15T00:12:08;6.50;1.00
296;DHT22;132;48.770;9.200;2023-04-15T00:14:35;6.50;1.00
296;DHT22;132;48.770;9.200;2023-04-15T00:17:02;6.60;1.00
296;DHT22;132;48.770;9.200;2023-04-15T00:19:30;6.30;1.00
296;DHT22;132;48.770;9.200;2023-04-15T00:21:57;6.10;1.00
296;DHT22;132;48.770;9.200;2023-04-15T00:24:23;6.40;1.00
296;DHT22;132;48.770;9.200;2023-04-15T00:26:50;6.10;1.00
296;DHT22;132;48.770;9.200;2023-04-15T00:29:17;6.10;1.00
296;DHT22;132;48.770;9.200;2023-04-15T00:31:44;6.40;1.00
296;DHT22;132;48.770;9.200;2023-04-15T00:34:11;6.90;1.00
296;DHT22;132;48.770;9.200;2023-04-15T00:36:38;6.20;1.00
296;DHT22;132;48.770;9.200;2023-04-15T00:39:04;6.80;1.00
296;DHT22;132;48.770;9.200;2023-04-15T00:41:31;6.30;1.00
296;DHT22;132;48.770;9.200;2023-04-15T00:44:00;5.90;1.00
296;DHT22;132;48.770;9.200;2023-04-15T00:46:28;6.00;1.00
296;DHT22;132;48.770;9.200;2023-04-15T00:48:56;6.40;1.00
296;DHT22;132;48.770;9.200;2023-04-15T00:51:23;6.00;1.00
296;DHT22;132;48.770;9.200;2023-04-15T00:53:50;6.60;1.00
296;DHT22;132;48.770;9.200;2023-04-15T00:56:19;6.00;1.00
296;DHT22;132;48.770;9.200;2023-04-15T00:58:50;5.80;1.00
296;DHT22;132;48.770;9.200;2023-04-15T01:01:20;5.80;1.00
296;DHT22;132;48.770;9.200;2023-04-15T01:03:49;6.50;1.00
296;DHT22;132;48.770;9.200;2023-04-15T01:06:17;5.80;1.00
296;DHT22;132;48.770;9.200;2023-04-15T01:08:44;6.20;1.00
296;DHT22;132;48.770;9.200;2023-04-15T01:11:12;5.90;1.00
296;DHT22;132;48.770;9.200;2023-04-15T01:13:40;5.70;1.00
296;DHT22;132;48.770;9.200;2023-04-15T01:16:07;6.30;1.00
296;DHT22;132;48.770;9.200;2023-04-15T01:18:35;6.00;1.00
296;DHT22;132;48.770;9.200;2023-04-15T01:21:04;5.80;1.00
296;DHT22;132;48.770;9.200;2023-04-15T01:23:32;5.60;1.00
296;DHT22;132;48.770;9.200;2023-04-15T01:26:02;5.50;1.00
296;DHT22;132;48.770;9.200;2023-04-15T01:28:29;5.70;1.00
296;DHT22;132;48.770;9.200;2023-04-15T01:31:11;7.70;1.00
296;DHT22;132;48.770;9.200;2023-04-15T01:33:40;5.50;1.00
296;DHT22;132;48.770;9.200;2023-04-15T01:36:26;5.60;1.00
296;DHT22;132;48.770;9.200;2023-04-15T01:38:55;5.80;1.00
296;DHT22;132;48.770;9.200;2023-04-15T01:41:26;5.30;1.00
296;DHT22;132;48.770;9.200;2023-04-15T01:43:54;5.90;1.00
296;DHT22;132;48.770;9.200;2023-04-15T01:46:23;5.40;1.00
296;DHT22;132;48.770;9.200;2023-04-15T01:48:51;5.30;1.00
296;DHT22;132;48.770;9.200;2023-04-15T01:51:19;5.30;1.00
296;DHT22;132;48.770;9.200;2023-04-15T01:53:50;6.10;1.00
296;DHT22;132;48.770;9.200;2023-04-15T01:56:18;5.20;1.00
296;DHT22;132;48.770;9.200;2023-04-15T01:58:48;5.50;1.00
296;DHT22;132;48.770;9.200;2023-04-15T02:01:16;5.20;1.00
296;DHT22;132;48.770;9.200;2023-04-15T02:03:46;5.30;1.00
296;DHT22;132;48.770;9.200;2023-04-15T02:06:16;5.10;1.00
296;DHT22;132;48.770;9.200;2023-04-15T02:08:45;5.30;1.00
296;DHT22;132;48.770;9.200;2023-04-15T02:11:13;5.00;1.00
296;DHT22;132;48.770;9.200;2023-04-15T02:13:41;5.00;1.00
296;DHT22;132;48.770;9.200;2023-04-15T02:16:17;5.00;1.00
296;DHT22;132;48.770;9.200;2023-04-15T02:18:45;4.90;1.00
296;DHT22;132;48.770;9.200;2023-04-15T02:21:14;4.90;1.00
296;DHT22;132;48.770;9.200;2023-04-15T02:23:42;5.80;1.00
296;DHT22;132;48.770;9.200;2023-04-15T02:26:14;5.70;1.00
296;DHT22;132;48.770;9.200;2023-04-15T02:28:42;4.80;1.00
296;DHT22;132;48.770;9.200;2023-04-15T02:31:10;4.80;1.00
296;DHT22;132;48.770;9.200;2023-04-15T02:33:38;3.30;1.00
296;DHT22;132;48.770;9.200;2023-04-15T02:36:06;5.30;1.00
296;DHT22;132;48.770;9.200;2023-04-15T02:38:35;4.80;1.00
296;DHT22;132;48.770;9.200;2023-04-15T02:41:05;4.80;1.00
296;DHT22;132;48.770;9.200;2023-04-15T02:43:35;4.70;1.00
296;DHT22;132;48.770;9.200;2023-04-15T02:46:05;4.70;1.00
296;DHT22;132;48.770;9.200;2023-04-15T02:48:33;4.90;1.00
296;DHT22;132;48.770;9.200;2023-04-15T02:51:15;4.70;1.00
296;DHT22;132;48.770;9.200;2023-04-15T02:53:43;4.60;1.00
296;DHT22;132;48.770;9.200;2023-04-15T02:56:11;4.70;1.00
296;DHT22;132;48.770;9.200;2023-04-15T02:58:43;4.60;1.00
296;DHT22;132;48.770;9.200;2023-04-15T03:01:12;4.60;1.00
296;DHT22;132;48.770;9.200;2023-04-15T03:03:42;4.60;1.00
296;DHT22;132;48.770;9.200;2023-04-15T03:06:10;3.80;1.00
296;DHT22;132;48.770;9.200;2023-04-15T03:08:38;4.50;1.00
296;DHT22;132;48.770;9.200;2023-04-15T03:11:08;4.00;1.00
296;DHT22;132;48.770;9.200;2023-04-15T03:13:37;3.90;1.00
296;DHT22;132;48.770;9.200;2023-04-15T03:16:14;6.30;1.00
296;DHT22;132;48.770;9.200;2023-04-15T03:18:43;4.60;1.00
296;DHT22;132;48.770;9.200;2023-04-15T03:21:10;4.60;1.00
296;DHT22;132;48.770;9.200;2023-04-15T03:23:40;4.40;1.00
296;DHT22;132;48.770;9.200;2023-04-15T03:26:07;4.50;1.00
296;DHT22;132;48.770;9.200;2023-04-15T03:28:35;4.30;1.00
296;DHT22;132;48.770;9.200;2023-04-15T03:31:03;4.50;1.00
296;DHT22;132;48.770;9.200;2023-04-15T03:33:31;4.40;1.00
296;DHT22;132;48.770;9.200;2023-04-15T03:35:59;4.40;1.00
296;DHT22;132;48.770;9.200;2023-04-15T03:38:27;4.40;1.00
296;DHT22;132;48.770;9.200;2023-04-15T03:40:55;4.40;1.00
296;DHT22;132;48.770;9.200;2023-04-15T03:43:23;4.30;1.00
296;DHT22;132;48.770;9.200;2023-04-15T03:45:50;4.30;1.00
296;DHT22;132;48.770;9.200;2023-04-15T03:48:18;4.30;1.00
296;DHT22;132;48.770;9.200;2023-04-15T03:50:46;4.30;1.00
296;DHT22;132;48.770;9.200;2023-04-15T03:53:14;4.30;1.00
296;DHT22;132;48.770;9.200;2023-04-15T03:55:42;4.30;1.00
296;DHT22;132;48.770;9.200;2023-04-15T03:58:11;4.30;1.00
296;DHT22;132;48.770;9.200;2023-04-15T04:00:39;4.30;1.00
296;DHT22;132;48.770;9.200;2023-04-15T04:03:08;4.30;1.00
296;DHT22;132;48.770;9.200;2023-04-15T04:05:35;4.30;1.00
296;DHT22;132;48.770;9.200;2023-04-15T04:08:05;4.30;1.00
296;DHT22;132;48.770;9.200;2023-04-15T04:10:33;4.30;1.00
296;DHT22;132;48.770;9.200;2023-04-15T04:13:01;4.20;1.00
296;DHT22;132;48.770;9.200;2023-04-15T04:15:29;4.30;1.00
296;DHT22;132;48.770;9.200;2023-04-15T04:17:57;3.70;1.00
296;DHT22;132;48.770;9.200;2023-04-15T04:20:24;4.20;1.00
296;DHT22;132;48.770;9.200;2023-04-15T04:22:52;4.20;1.00
296;DHT22;132;48.770;9.200;2023-04-15T04:25:20;4.00;1.00
296;DHT22;132;48.770;9.200;2023-04-15T04:27:48;4.20;1.00
296;DHT22;132;48.770;9.200;2023-04-15T04:30:15;4.20;1.00
296;DHT22;132;48.770;9.200;2023-04-15T04:32:43;4.10;1.00
296;DHT22;132;48.770;9.200;2023-04-15T04:35:11;4.10;1.00
296;DHT22;132;48.770;9.200;2023-04-15T04:37:39;4.10;1.00
296;DHT22;132;48.770;9.200;2023-04-15T04:40:07;4.10;1.00
296;DHT22;132;48.770;9.200;2023-04-15T04:42:35;4.30;1.00
296;DHT22;132;48.770;9.200;2023-04-15T04:45:03;4.00;1.00
296;DHT22;132;48.770;9.200;2023-04-15T04:47:31;4.10;1.00
296;DHT22;132;48.770;9.200;2023-04-15T04:49:59;4.10;1.00
296;DHT22;132;48.770;9.200;2023-04-15T04:52:27;4.00;1.00
296;DHT22;132;48.770;9.200;2023-04-15T04:54:55;4.00;1.00
296;DHT22;132;48.770;9.200;2023-04-15T04:57:22;4.00;1.00
296;DHT22;132;48.770;9.200;2023-04-15T04:59:50;3.90;1.00
296;DHT22;132;48.770;9.200;2023-04-15T05:02:18;4.00;1.00
296;DHT22;132;48.770;9.200;2023-04-15T05:04:46;4.00;1.00
296;DHT22;132;48.770;9.200;2023-04-15T05:07:13;4.00;1.00
296;DHT22;132;48.770;9.200;2023-04-15T05:09:42;4.10;1.00
296;DHT22;132;48.770;9.200;2023-04-15T05:12:10;2.40;1.00
296;DHT22;132;48.770;9.200;2023-04-15T05:14:41;4.00;1.00
296;DHT22;132;48.770;9.200;2023-04-15T05:17:09;4.10;1.00
296;DHT22;132;48.770;9.200;2023-04-15T05:19:38;4.10;1.00
296;DHT22;132;48.770;9.200;2023-04-15T05:22:06;4.10;1.00
296;DHT22;132;48.770;9.200;2023-04-15T05:24:34;4.10;1.00
296;DHT22;132;48.770;9.200;2023-04-15T05:27:02;4.30;1.00
296;DHT22;132;48.770;9.200;2023-04-15T05:29:30;4.10;1.00
296;DHT22;132;48.770;9.200;2023-04-15T05:31:57;4.40;1.00
296;DHT22;132;48.770;9.200;2023-04-15T05:34:25;4.30;1.00
296;DHT22;132;48.770;9.200;2023-04-15T05:36:53;4.40;1.00
296;DHT22;132;48.770;9.200;2023-04-15T05:39:21;4.60;1.00
296;DHT22;132;48.770;9.200;2023-04-15T05:41:49;4.70;1.00
296;DHT22;132;48.770;9.200;2023-04-15T05:44:17;7.00;1.00
296;DHT22;132;48.770;9.200;2023-04-15T05:46:44;4.90;1.00
296;DHT22;132;48.770;9.200;2023-04-15T05:49:12;5.10;1.00
296;DHT22;132;48.770;9.200;2023-04-15T05:51:40;7.60;1.00
296;DHT22;132;48.770;9.200;2023-04-15T05:54:08;5.30;1.00
296;DHT22;132;48.770;9.200;2023-04-15T05:56:35;5.50;1.00
296;DHT22;132;48.770;9.200;2023-04-15T05:59:03;5.80;1.00
296;DHT22;132;48.770;9.200;2023-04-15T06:01:33;6.00;1.00
296;DHT22;132;48.770;9.200;2023-04-15T06:04:02;6.20;1.00
296;DHT22;132;48.770;9.200;2023-04-15T06:06:29;8.60;1.00
296;DHT22;132;48.770;9.200;2023-04-15T06:08:59;6.70;1.00
296;DHT22;132;48.770;9.200;2023-04-15T06:11:27;6.90;1.00
296;DHT22;132;48.770;9.200;2023-04-15T06:13:55;9.70;1.00
296;DHT22;132;48.770;9.200;2023-04-15T06:16:23;10.30;1.00
296;DHT22;132;48.770;9.200;2023-04-15T06:18:50;8.20;1.00
296;DHT22;132;48.770;9.200;2023-04-15T06:21:18;10.80;1.00
296;DHT22;132;48.770;9.200;2023-04-15T06:23:47;11.20;1.00
296;DHT22;132;48.770;9.200;2023-04-15T06:26:15;10.70;1.00
296;DHT22;132;48.770;9.200;2023-04-15T06:28:43;10.90;1.00
296;DHT22;132;48.770;9.200;2023-04-15T06:31:10;10.80;1.00
296;DHT22;132;48.770;9.200;2023-04-15T06:33:38;11.50;1.00
296;DHT22;132;48.770;9.200;2023-04-15T06:36:07;11.60;1.00
296;DHT22;132;48.770;9.200;2023-04-15T06:38:34;11.70;1.00
296;DHT22;132;48.770;9.200;2023-04-15T06:41:03;12.30;1.00
296;DHT22;132;48.770;9.200;2023-04-15T06:43:31;12.30;1.00
296;DHT22;132;48.770;9.200;2023-04-15T06:45:59;12.60;1.00
296;DHT22;132;48.770;9.200;2023-04-15T06:48:27;12.40;1.00
296;DHT22;132;48.770;9.200;2023-04-15T06:50:55;11.90;1.00
296;DHT22;132;48.770;9.200;2023-04-15T06:53:25;12.30;1.00
296;DHT22;132;48.770;9.200;2023-04-15T06:55:54;12.10;1.00
296;DHT22;132;48.770;9.200;2023-04-15T06:58:22;13.20;1.00
296;DHT22;132;48.770;9.200;2023-04-15T07:00:51;13.80;1.00
296;DHT22;132;48.770;9.200;2023-04-15T07:03:19;14.70;1.00
296;DHT22;132;48.770;9.200;2023-04-15T07:05:47;15.70;1.00
296;DHT22;132;48.770;9.200;2023-04-15T07:08:15;16.60;1.00
296;DHT22;132;48.770;9.200;2023-04-15T07:10:43;17.20;1.00
296;DHT22;132;48.770;9.200;2023-04-15T07:13:11;17.90;1.00
296;DHT22;132;48.770;9.200;2023-04-15T07:15:39;18.10;1.00
296;DHT22;132;48.770;9.200;2023-04-15T07:18:07;18.20;1.00
296;DHT22;132;48.770;9.200;2023-04-15T07:20:36;19.20;1.00
296;DHT22;132;48.770;9.200;2023-04-15T07:23:03;19.30;1.00
296;DHT22;132;48.770;9.200;2023-04-15T07:25:31;19.60;1.00
296;DHT22;132;48.770;9.200;2023-04-15T07:27:59;19.30;1.00
296;DHT22;132;48.770;9.200;2023-04-15T07:30:27;18.80;1.00
296;DHT22;132;48.770;9.200;2023-04-15T07:32:57;17.50;1.00
296;DHT22;132;48.770;9.200;2023-04-15T07:35:25;16.60;1.00
296;DHT22;132;48.770;9.200;2023-04-15T07:37:54;15.80;1.00
296;DHT22;132;48.770;9.200;2023-04-15T07:40:22;15.30;1.00
296;DHT22;132;48.770;9.200;2023-04-15T07:42:49;14.80;1.00
296;DHT22;132;48.770;9.200;2023-04-15T07:45:17;14.30;1.00
296;DHT22;132;48.770;9.200;2023-04-15T07:47:45;13.90;1.00
296;DHT22;132;48.770;9.200;2023-04-15T07:50:13;13.60;1.00
296;DHT22;132;48.770;9.200;2023-04-15T07:52:42;13.50;1.00
296;DHT22;132;48.770;9.200;2023-04-15T07:55:11;14.90;1.00
296;DHT22;132;48.770;9.200;2023-04-15T07:57:39;13.90;1.00
296;DHT22;132;48.770;9.200;2023-04-15T08:00:07;14.90;1.00
296;DHT22;132;48.770;9.200;2023-04-15T08:02:44;15.00;1.00
296;DHT22;132;48.770;9.200;2023-04-15T08:05:13;14.50;1.00
296;DHT22;132;48.770;9.200;2023-04-15T08:07:41;15.40;1.00
296;DHT22;132;48.770;9.200;2023-04-15T08:10:09;16.00;1.00
296;DHT22;132;48.770;9.200;2023-04-15T08:12:37;15.90;1.00
296;DHT22;132;48.770;9.200;2023-04-15T08:15:06;16.10;1.00
296;DHT22;132;48.770;9.200;2023-04-15T08:17:34;16.20;1.00
296;DHT22;132;48.770;9.200;2023-04-15T08:20:02;15.80;1.00
296;DHT22;132;48.770;9.200;2023-04-15T08:22:32;15.20;1.00
296;DHT22;132;48.770;9.200;2023-04-15T08:25:01;16.10;1.00
296;DHT22;132;48.770;9.200;2023-04-15T08:27:28;15.90;1.00
296;DHT22;132;48.770;9.200;2023-04-15T08:29:56;16.00;1.00
296;DHT22;132;48.770;9.200;2023-04-15T08:32:25;17.20;1.00
296;DHT22;132;48.770;9.200;2023-04-15T08:34:53;18.60;1.00
296;DHT22;132;48.770;9.200;2023-04-15T08:37:21;19.20;1.00
296;DHT22;132;48.770;9.200;2023-04-15T08:39:49;19.70;1.00
296;DHT22;132;48.770;9.200;2023-04-15T08:42:23;20.40;1.00
296;DHT22;132;48.770;9.200;2023-04-15T08:44:54;20.70;1.00
296;DHT22;132;48.770;9.200;2023-04-15T08:47:23;21.10;1.00
296;DHT22;132;48.770;9.200;2023-04-15T08:49:54;22.50;1.00
296;DHT22;132;48.770;9.200;2023-04-15T08:52:26;23.40;1.00
296;DHT22;132;48.770;9.200;2023-04-15T08:54:57;24.00;1.00
296;DHT22;132;48.770;9.200;2023-04-15T08:57:28;24.90;1.00
296;DHT22;132;48.770;9.200;2023-04-15T08:59:56;25.20;1.00
296;DHT22;132;48.770;9.200;2023-04-15T09:02:26;25.70;1.00
296;DHT22;132;48.770;9.200;2023-04-15T09:04:54;24.50;1.00
296;DHT22;132;48.770;9.200;2023-04-15T09:07:23;24.50;1.00
296;DHT22;132;48.770;9.200;2023-04-15T09:09:51;24.80;1.00
296;DHT22;132;48.770;9.200;2023-04-15T09:12:32;26.00;1.00
296;DHT22;132;48.770;9.200;2023-04-15T09:15:02;27.90;1.00
296;DHT22;132;48.770;9.200;2023-04-15T09:17:32;26.90;1.00
296;DHT22;132;48.770;9.200;2023-04-15T09:22:40;26.70;1.00
296;DHT22;132;48.770;9.200;2023-04-15T09:25:25;26.50;1.00
296;DHT22;132;48.770;9.200;2023-04-15T09:28:01;27.10;1.00
296;DHT22;132;48.770;9.200;2023-04-15T09:30:29;25.50;1.00
296;DHT22;132;48.770;9.200;2023-04-15T09:33:00;24.90;1.00
296;DHT22;132;48.770;9.200;2023-04-15T09:35:34;24.20;1.00
296;DHT22;132;48.770;9.200;2023-04-15T09:38:08;23.30;1.00
296;DHT22;132;48.770;9.200;2023-04-15T09:40:40;24.30;1.00
296;DHT22;132;48.770;9.200;2023-04-15T09:43:09;23.80;1.00
296;DHT22;132;48.770;9.200;2023-04-15T09:45:49;23.90;1.00
296;DHT22;132;48.770;9.200;2023-04-15T09:48:19;23.70;1.00
296;DHT22;132;48.770;9.200;2023-04-15T09:50:48;22.80;1.00
296;DHT22;132;48.770;9.200;2023-04-15T09:53:21;21.80;1.00
296;DHT22;132;48.770;9.200;2023-04-15T09:59:18;20.00;1.00
296;DHT22;132;48.770;9.200;2023-04-15T10:01:54;19.30;1.00
296;DHT22;132;48.770;9.200;2023-04-15T10:04:24;19.40;1.00
296;DHT22;132;48.770;9.200;2023-04-15T10:07:22;19.10;1.00
296;DHT22;132;48.770;9.200;2023-04-15T10:09:52;19.60;1.00
296;DHT22;132;48.770;9.200;2023-04-15T10:12:24;18.80;1.00
296;DHT22;132;48.770;9.200;2023-04-15T10:14:58;18.90;1.00
296;DHT22;132;48.770;9.200;2023-04-15T10:17:27;18.60;1.00
296;DHT22;132;48.770;9.200;2023-04-15T10:20:01;18.40;1.00
296;DHT22;132;48.770;9.200;2023-04-15T10:22:32;18.00;1.00
296;DHT22;132;48.770;9.200;2023-04-15T10:25:02;18.00;1.00
296;DHT22;132;48.770;9.200;2023-04-15T10:27:33;18.40;1.00
296;DHT22;132;48.770;9.200;2023-04-15T10:30:11;19.00;1.00
296;DHT22;132;48.770;9.200;2023-04-15T10:32:43;21.70;1.00
296;DHT22;132;48.770;9.200;2023-04-15T10:35:11;22.00;1.00
296;DHT22;132;48.770;9.200;2023-04-15T10:37:40;22.20;1.00
296;DHT22;132;48.770;9.200;2023-04-15T10:40:34;21.50;1.00
296;DHT22;132;48.770;9.200;2023-04-15T10:43:02;22.00;1.00
296;DHT22;132;48.770;9.200;2023-04-15T10:45:35;21.50;1.00
296;DHT22;132;48.770;9.200;2023-04-15T10:59:58;21.50;1.00
296;DHT22;132;48.770;9.200;2023-04-15T11:13:18;19.80;1.00
296;DHT22;132;48.770;9.200;2023-04-15T11:15:48;19.70;1.00
296;DHT22;132;48.770;9.200;2023-04-15T11:18:21;19.70;1.00
296;DHT22;132;48.770;9.200;2023-04-15T11:21:12;20.20;1.00
296;DHT22;132;48.770;9.200;2023-04-15T11:23:48;22.60;1.00
296;DHT22;132;48.770;9.200;2023-04-15T11:26:16;23.70;1.00
296;DHT22;132;48.770;9.200;2023-04-15T11:28:45;25.00;1.00
296;DHT22;132;48.770;9.200;2023-04-15T11:31:15;21.60;1.00
296;DHT22;132;48.770;9.200;2023-04-15T11:34:38;20.80;1.00
296;DHT22;132;48.770;9.200;2023-04-15T11:37:29;20.20;1.00
296;DHT22;132;48.770;9.200;2023-04-15T11:40:01;20.80;1.00
296;DHT22;132;48.770;9.200;2023-04-15T11:42:29;21.60;1.00
296;DHT22;132;48.770;9.200;2023-04-15T11:45:10;21.50;1.00
296;DHT22;132;48.770;9.200;2023-04-15T11:47:42;20.50;1.00
296;DHT22;132;48.770;9.200;2023-04-15T13:43:14;14.00;1.00
296;DHT22;132;48.770;9.200;2023-04-15T13:45:43;14.10;1.00
296;DHT22;132;48.770;9.200;2023-04-15T13:48:10;14.30;1.00
296;DHT22;132;48.770;9.200;2023-04-15T13:50:37;14.40;1.00
296;DHT22;132;48.770;9.200;2023-04-15T13:53:03;14.90;1.00
296;DHT22;132;48.770;9.200;2023-04-15T13:55:30;14.20;1.00
296;DHT22;132;48.770;9.200;2023-04-15T13:58:00;14.10;1.00
296;DHT22;132;48.770;9.200;2023-04-15T14:00:29;15.50;1.00
296;DHT22;132;48.770;9.200;2023-04-15T14:02:56;13.90;1.00
296;DHT22;132;48.770;9.200;2023-04-15T14:05:23;13.90;1.00
296;DHT22;132;48.770;9.200;2023-04-15T14:07:50;14.20;1.00
296;DHT22;132;48.770;9.200;2023-04-15T14:10:17;16.10;1.00
296;DHT22;132;48.770;9.200;2023-04-15T14:12:45;13.60;1.00
296;DHT22;132;48.770;9.200;2023-04-15T14:15:11;13.40;1.00
296;DHT22;132;48.770;9.200;2023-04-15T14:17:39;13.30;1.00
296;DHT22;132;48.770;9.200;2023-04-15T14:20:08;13.20;1.00
296;DHT22;132;48.770;9.200;2023-04-15T14:22:35;13.20;1.00
296;DHT22;132;48.770;9.200;2023-04-15T14:25:02;13.10;1.00
296;DHT22;132;48.770;9.200;2023-04-15T14:27:30;13.40;1.00
296;DHT22;132;48.770;9.200;2023-04-15T14:29:57;13.10;1.00
296;DHT22;132;48.770;9.200;2023-04-15T14:32:25;13.20;1.00
296;DHT22;132;48.770;9.200;2023-04-15T14:34:52;13.30;1.00
296;DHT22;132;48.770;9.200;2023-04-15T14:37:19;13.30;1.00
296;DHT22;132;48.770;9.200;2023-04-15T14:39:46;14.30;1.00
296;DHT22;132;48.770;9.200;2023-04-15T14:42:13;13.30;1.00
296;DHT22;132;48.770;9.200;2023-04-15T14:44:40;13.20;1.00
296;DHT22;132;48.770;9.200;2023-04-15T14:47:07;13.10;1.00
296;DHT22;132;48.770;9.200;2023-04-15T14:49:33;12.90;1.00
296;DHT22;132;48.770;9.200;2023-04-15T14:52:00;11.80;1.00
296;DHT22;132;48.770;9.200;2023-04-15T14:54:28;12.50;1.00
296;DHT22;132;48.770;9.200;2023-04-15T14:56:54;12.50;1.00
296;DHT22;132;48.770;9.200;2023-04-15T14:59:21;12.50;1.00
296;DHT22;132;48.770;9.200;2023-04-15T15:01:48;12.30;1.00
296;DHT22;132;48.770;9.200;2023-04-15T15:04:15;12.30;1.00
296;DHT22;132;48.770;9.200;2023-04-15T15:06:42;12.20;1.00
296;DHT22;132;48.770;9.200;2023-04-15T15:09:10;12.00;1.00
296;DHT22;132;48.770;9.200;2023-04-15T15:11:37;12.00;1.00
296;DHT22;132;48.770;9.200;2023-04-15T15:14:04;12.00;1.00
296;DHT22;132;48.770;9.200;2023-04-15T15:16:31;11.90;1.00
296;DHT22;132;48.770;9.200;2023-04-15T15:18:59;11.80;1.00
296;DHT22;132;48.770;9.200;2023-04-15T15:21:27;11.80;1.00
296;DHT22;132;48.770;9.200;2023-04-15T15:23:54;12.40;1.00
296;DHT22;132;48.770;9.200;2023-04-15T15:26:21;11.60;1.00
296;DHT22;132;48.770;9.200;2023-04-15T15:28:48;11.60;1.00
296;DHT22;132;48.770;9.200;2023-04-15T15:31:16;11.50;1.00
296;DHT22;132;48.770;9.200;2023-04-15T15:33:42;11.60;1.00
296;DHT22;132;48.770;9.200;2023-04-15T15:36:09;11.50;1.00
296;DHT22;132;48.770;9.200;2023-04-15T15:38:36;11.60;1.00
296;DHT22;132;48.770;9.200;2023-04-15T15:41:03;11.60;1.00
296;DHT22;132;48.770;9.200;2023-04-15T15:43:30;11.50;1.00
296;DHT22;132;48.770;9.200;2023-04-15T15:45:57;11.40;1.00
296;DHT22;132;48.770;9.200;2023-04-15T15:48:26;11.50;1.00
296;DHT22;132;48.770;9.200;2023-04-15T15:50:53;11.50;1.00
296;DHT22;132;48.770;9.200;2023-04-15T15:53:19;11.50;1.00
296;DHT22;132;48.770;9.200;2023-04-15T15:55:49;11.40;1.00
296;DHT22;132;48.770;9.200;2023-04-15T15:58:15;11.40;1.00
296;DHT22;132;48.770;9.200;2023-04-15T16:00:42;11.30;1.00
296;DHT22;132;48.770;9.200;2023-04-15T16:03:09;11.30;1.00
296;DHT22;132;48.770;9.200;2023-04-15T16:05:38;11.40;1.00
296;DHT22;132;48.770;9.200;2023-04-15T16:08:05;11.40;1.00
296;DHT22;132;48.770;9.200;2023-04-15T16:10:32;11.40;1.00
296;DHT22;132;48.770;9.200;2023-04-15T16:12:58;11.40;1.00
296;DHT22;132;48.770;9.200;2023-04-15T16:15:25;11.40;1.00
296;DHT22;132;48.770;9.200;2023-04-15T16:17:52;11.40;1.00
296;DHT22;132;48.770;9.200;2023-04-15T16:20:21;11.40;1.00
296;DHT22;132;48.770;9.200;2023-04-15T16:22:48;11.30;1.00
296;DHT22;132;48.770;9.200;2023-04-15T16:25:15;11.10;1.00
296;DHT22;132;48.770;9.200;2023-04-15T16:27:42;11.10;1.00
296;DHT22;132;48.770;9.200;2023-04-15T16:30:09;11.30;1.00
296;DHT22;132;48.770;9.200;2023-04-15T16:32:39;11.00;1.00
296;DHT22;132;48.770;9.200;2023-04-15T16:35:06;11.00;1.00
296;DHT22;132;48.770;9.200;2023-04-15T16:37:33;10.90;1.00
296;DHT22;132;48.770;9.200;2023-04-15T16:40:02;11.00;1.00
296;DHT22;132;48.770;9.200;2023-04-15T16:42:29;10.80;1.00
296;DHT22;132;48.770;9.200;2023-04-15T16:44:56;10.60;1.00
296;DHT22;132;48.770;9.200;2023-04-15T16:47:23;10.70;1.00
296;DHT22;132;48.770;9.200;2023-04-15T16:49:49;10.60;1.00
296;DHT22;132;48.770;9.200;2023-04-15T16:52:16;10.60;1.00
296;DHT22;132;48.770;9.200;2023-04-15T16:54:42;10.50;1.00
296;DHT22;132;48.770;9.200;2023-04-15T16:57:09;10.40;1.00
296;DHT22;132;48.770;9.200;2023-04-15T16:59:36;10.40;1.00
296;DHT22;132;48.770;9.200;2023-04-15T17:02:03;10.40;1.00
296;DHT22;132;48.770;9.200;2023-04-15T17:04:32;10.30;1.00
296;DHT22;132;48.770;9.200;2023-04-15T17:07:02;10.20;1.00
296;DHT22;132;48.770;9.200;2023-04-15T17:09:32;10.10;1.00
296;DHT22;132;48.770;9.200;2023-04-15T17:11:59;12.50;1.00
296;DHT22;132;48.770;9.200;2023-04-15T17:14:27;10.00;1.00
296;DHT22;132;48.770;9.200;2023-04-15T17:16:54;9.80;1.00
296;DHT22;132;48.770;9.200;2023-04-15T17:19:21;9.70;1.00
296;DHT22;132;48.770;9.200;2023-04-15T17:21:57;9.60;1.00
296;DHT22;132;48.770;9.200;2023-04-15T17:24:27;9.60;1.00
296;DHT22;132;48.770;9.200;2023-04-15T17:27:02;9.50;1.00
296;DHT22;132;48.770;9.200;2023-04-15T17:29:32;9.40;1.00
296;DHT22;132;48.770;9.200;2023-04-15T17:32:00;9.40;1.00
296;DHT22;132;48.770;9.200;2023-04-15T17:34:48;9.40;1.00
296;DHT22;132;48.770;9.200;2023-04-15T17:37:35;9.40;1.00
296;DHT22;132;48.770;9.200;2023-04-15T17:40:22;9.40;1.00
296;DHT22;132;48.770;9.200;2023-04-15T17:43:08;9.40;1.00
296;DHT22;132;48.770;9.200;2023-04-15T17:45:55;9.40;1.00
296;DHT22;132;48.770;9.200;2023-04-15T17:48:44;9.40;1.00
296;DHT22;132;48.770;9.200;2023-04-15T17:51:31;9.30;1.00
296;DHT22;132;48.770;9.200;2023-04-15T17:54:26;9.40;1.00
296;DHT22;132;48.770;9.200;2023-04-15T17:57:12;9.30;1.00
296;DHT22;132;48.770;9.200;2023-04-15T17:59:58;9.20;1.00
296;DHT22;132;48.770;9.200;2023-04-15T18:02:45;9.10;1.00
296;DHT22;132;48.770;9.200;2023-04-15T18:05:33;9.20;1.00
296;DHT22;132;48.770;9.200;2023-04-15T18:08:20;9.20;1.00
296;DHT22;132;48.770;9.200;2023-04-15T18:11:06;9.10;1.00
296;DHT22;132;48.770;9.200;2023-04-15T18:13:54;9.00;1.00
296;DHT22;132;48.770;9.200;2023-04-15T18:16:40;9.10;1.00
296;DHT22;132;48.770;9.200;2023-04-15T18:19:29;9.00;1.00
296;DHT22;132;48.770;9.200;2023-04-15T18:21:55;9.40;1.00
296;DHT22;132;48.770;9.200;2023-04-15T18:24:23;9.20;1.00
296;DHT22;132;48.770;9.200;2023-04-15T18:26:49;9.60;1.00
296;DHT22;132;48.770;9.200;2023-04-15T18:29:16;8.90;1.00
296;DHT22;132;48.770;9.200;2023-04-15T18:31:43;8.80;1.00
296;DHT22;132;48.770;9.200;2023-04-15T18:34:10;8.80;1.00
296;DHT22;132;48.770;9.200;2023-04-15T18:36:36;9.00;1.00
296;DHT22;132;48.770;9.200;2023-04-15T18:39:04;8.70;1.00
296;DHT22;132;48.770;9.200;2023-04-15T18:41:30;9.10;1.00
296;DHT22;132;48.770;9.200;2023-04-15T18:43:57;8.80;1.00
296;DHT22;132;48.770;9.200;2023-04-15T18:46:23;9.10;1.00
296;DHT22;132;48.770;9.200;2023-04-15T18:48:50;8.80;1.00
296;DHT22;132;48.770;9.200;2023-04-15T18:51:16;8.80;1.00
296;DHT22;132;48.770;9.200;2023-04-15T18:53:42;9.30;1.00
296;DHT22;132;48.770;9.200;2023-04-15T18:56:09;9.10;1.00
296;DHT22;132;48.770;9.200;2023-04-15T18:58:36;9.00;1.00
296;DHT22;132;48.770;9.200;2023-04-15T19:01:03;10.50;1.00
296;DHT22;132;48.770;9.200;2023-04-15T19:03:29;10.50;1.00
296;DHT22;132;48.770;9.200;2023-04-15T19:05:56;8.70;1.00
296;DHT22;132;48.770;9.200;2023-04-15T19:08:22;7.30;1.00
296;DHT22;132;48.770;9.200;2023-04-15T19:10:49;10.30;1.00
296;DHT22;132;48.770;9.200;2023-04-15T19:13:17;8.60;1.00
296;DHT22;132;48.770;9.200;2023-04-15T19:15:45;8.60;1.00
296;DHT22;132;48.770;9.200;2023-04-15T19:18:12;8.60;1.00
296;DHT22;132;48.770;9.200;2023-04-15T19:20:38;8.60;1.00
296;DHT22;132;48.770;9.200;2023-04-15T19:23:05;8.50;1.00
296;DHT22;132;48.770;9.200;2023-04-15T19:25:32;8.50;1.00
296;DHT22;132;48.770;9.200;2023-04-15T19:27:58;9.10;1.00
296;DHT22;132;48.770;9.200;2023-04-15T19:30:25;10.10;1.00
296;DHT22;132;48.770;9.200;2023-04-15T19:32:51;8.50;1.00
296;DHT22;132;48.770;9.200;2023-04-15T19:35:18;8.40;1.00
296;DHT22;132;48.770;9.200;2023-04-15T19:37:46;8.40;1.00
296;DHT22;132;48.770;9.200;2023-04-15T19:40:13;10.10;1.00